sensor_id;sensor_type;location;lat;lon;timestamp;P1;durP1;ratioP1;P2;durP2;ratioP2
27796;SDS011;15177;50.844;4.412;2024-01-30T00:00:17;8.87;;;6.13;;
27796;SDS011;15177;50.844;4.412;2024-01-30T00:02:46;9.07;;;5.03;;
27796;SDS011;15177;50.844;4.412;2024-01-30T00:05:12;9.43;;;5.47;;
27796;SDS011;15177;50.844;4.412;2024-01-30T00:07:38;11.17;;;4.83;;
27796;SDS011;15177;50.844;4.412;2024-01-30T00:10:06;10.10;;;5.30;;
27796;SDS011;15177;50.844;4.412;2024-01-30T00:12:36;8.10;;;4.87;;
27796;SDS011;15177;50.844;4.412;2024-01-30T00:15:02;9.23;;;5.33;;
27796;SDS011;15177;50.844;4.412;2024-01-30T00:17:29;8.07;;;4.43;;
27796;SDS011;15177;50.844;4.412;2024-01-30T00:19:55;11.30;;;5.47;;
27796;SDS011;15177;50.844;4.412;2024-01-30T00:22:21;11.97;;;5.70;;
27796;SDS011;15177;50.844;4.412;2024-01-30T00:24:49;7.97;;;5.40;;
27796;SDS011;15177;50.844;4.412;2024-01-30T00:27:15;8.37;;;5.20;;
27796;SDS011;15177;50.844;4.412;2024-01-30T00:29:41;9.13;;;5.00;;
27796;SDS011;15177;50.844;4.412;2024-01-30T00:32:06;8.83;;;4.87;;
27796;SDS011;15177;50.844;4.412;2024-01-30T00:34:35;8.73;;;4.83;;
27796;SDS011;15177;50.844;4.412;2024-01-30T00:37:00;10.40;;;4.97;;
27796;SDS011;15177;50.844;4.412;2024-01-30T00:39:26;8.73;;;5.00;;
27796;SDS011;15177;50.844;4.412;2024-01-30T00:41:52;9.87;;;5.30;;
27796;SDS011;15177;50.844;4.412;2024-01-30T00:44:20;9.73;;;5.03;;
27796;SDS011;15177;50.844;4.412;2024-01-30T00:46:48;8.97;;;5.20;;
27796;SDS011;15177;50.844;4.412;2024-01-30T00:49:13;9.83;;;4.80;;
27796;SDS011;15177;50.844;4.412;2024-01-30T00:51:42;9.20;;;5.07;;
27796;SDS011;15177;50.844;4.412;2024-01-30T00:54:07;7.67;;;5.10;;
27796;SDS011;15177;50.844;4.412;2024-01-30T00:56:33;9.47;;;5.37;;
27796;SDS011;15177;50.844;4.412;2024-01-30T00:59:01;7.53;;;5.17;;
27796;SDS011;15177;50.844;4.412;2024-01-30T01:01:29;10.97;;;4.87;;
27796;SDS011;15177;50.844;4.412;2024-01-30T01:03:55;11.03;;;5.30;;
27796;SDS011;15177;50.844;4.412;2024-01-30T01:06:20;9.50;;;4.77;;
27796;SDS011;15177;50.844;4.412;2024-01-30T01:08:46;9.17;;;5.17;;
27796;SDS011;15177;50.844;4.412;2024-01-30T01:11:11;8.33;;;5.07;;
27796;SDS011;15177;50.844;4.412;2024-01-30T01:13:37;11.93;;;5.00;;
27796;SDS011;15177;50.844;4.412;2024-01-30T01:16:03;8.93;;;4.63;;
27796;SDS011;15177;50.844;4.412;2024-01-30T01:18:29;8.53;;;5.23;;
27796;SDS011;15177;50.844;4.412;2024-01-30T01:20:54;11.83;;;5.03;;
27796;SDS011;15177;50.844;4.412;2024-01-30T01:23:20;7.47;;;4.70;;
27796;SDS011;15177;50.844;4.412;2024-01-30T01:25:48;8.23;;;5.63;;
27796;SDS011;15177;50.844;4.412;2024-01-30T01:28:14;7.77;;;4.90;;
27796;SDS011;15177;50.844;4.412;2024-01-30T01:30:42;9.13;;;4.90;;
27796;SDS011;15177;50.844;4.412;2024-01-30T01:33:07;7.93;;;4.30;;
27796;SDS011;15177;50.844;4.412;2024-01-30T01:35:34;7.77;;;4.23;;
27796;SDS011;15177;50.844;4.412;2024-01-30T01:38:00;9.37;;;5.23;;
27796;SDS011;15177;50.844;4.412;2024-01-30T01:40:28;6.73;;;4.37;;
27796;SDS011;15177;50.844;4.412;2024-01-30T01:42:55;9.20;;;5.33;;
27796;SDS011;15177;50.844;4.412;2024-01-30T01:45:21;9.60;;;4.90;;
27796;SDS011;15177;50.844;4.412;2024-01-30T01:47:47;7.00;;;3.87;;
27796;SDS011;15177;50.844;4.412;2024-01-30T01:50:18;11.57;;;5.13;;
27796;SDS011;15177;50.844;4.412;2024-01-30T01:52:48;10.30;;;4.53;;
27796;SDS011;15177;50.844;4.412;2024-01-30T01:55:15;8.80;;;4.40;;
27796;SDS011;15177;50.844;4.412;2024-01-30T01:57:47;7.90;;;4.80;;
27796;SDS011;15177;50.844;4.412;2024-01-30T02:00:12;9.60;;;4.90;;
27796;SDS011;15177;50.844;4.412;2024-01-30T02:02:39;10.80;;;4.60;;
27796;SDS011;15177;50.844;4.412;2024-01-30T02:05:07;11.40;;;5.23;;
27796;SDS011;15177;50.844;4.412;2024-01-30T02:07:33;7.87;;;4.23;;
27796;SDS011;15177;50.844;4.412;2024-01-30T02:09:59;6.40;;;4.23;;
27796;SDS011;15177;50.844;4.412;2024-01-30T02:12:28;8.07;;;4.90;;
27796;SDS011;15177;50.844;4.412;2024-01-30T02:14:54;9.67;;;4.97;;
27796;SDS011;15177;50.844;4.412;2024-01-30T02:17:20;13.43;;;4.90;;
27796;SDS011;15177;50.844;4.412;2024-01-30T02:19:49;7.70;;;4.37;;
27796;SDS011;15177;50.844;4.412;2024-01-30T02:22:14;8.33;;;4.70;;
27796;SDS011;15177;50.844;4.412;2024-01-30T02:24:40;6.97;;;4.47;;
27796;SDS011;15177;50.844;4.412;2024-01-30T02:27:06;7.53;;;4.53;;
27796;SDS011;15177;50.844;4.412;2024-01-30T02:29:31;8.93;;;4.77;;
27796;SDS011;15177;50.844;4.412;2024-01-30T02:31:59;8.70;;;4.97;;
27796;SDS011;15177;50.844;4.412;2024-01-30T02:34:25;5.67;;;4.50;;
27796;SDS011;15177;50.844;4.412;2024-01-30T02:36:50;12.27;;;6.27;;
27796;SDS011;15177;50.844;4.412;2024-01-30T02:39:16;9.67;;;4.70;;
27796;SDS011;15177;50.844;4.412;2024-01-30T02:41:42;7.83;;;4.20;;
27796;SDS011;15177;50.844;4.412;2024-01-30T02:44:10;8.23;;;4.87;;
27796;SDS011;15177;50.844;4.412;2024-01-30T02:46:35;15.63;;;4.70;;
27796;SDS011;15177;50.844;4.412;2024-01-30T02:49:04;8.33;;;4.63;;
27796;SDS011;15177;50.844;4.412;2024-01-30T02:51:29;8.27;;;4.77;;
27796;SDS011;15177;50.844;4.412;2024-01-30T02:53:55;8.70;;;4.33;;
27796;SDS011;15177;50.844;4.412;2024-01-30T02:56:21;10.60;;;4.53;;
27796;SDS011;15177;50.844;4.412;2024-01-30T02:58:47;8.87;;;5.20;;
27796;SDS011;15177;50.844;4.412;2024-01-30T03:01:12;9.50;;;5.13;;
27796;SDS011;15177;50.844;4.412;2024-01-30T03:03:38;11.03;;;5.53;;
27796;SDS011;15177;50.844;4.412;2024-01-30T03:06:05;8.20;;;4.87;;
27796;SDS011;15177;50.844;4.412;2024-01-30T03:08:36;10.07;;;5.10;;
27796;SDS011;15177;50.844;4.412;2024-01-30T03:11:02;9.90;;;4.80;;
27796;SDS011;15177;50.844;4.412;2024-01-30T03:13:32;7.00;;;4.90;;
27796;SDS011;15177;50.844;4.412;2024-01-30T03:15:58;10.60;;;4.67;;
27796;SDS011;15177;50.844;4.412;2024-01-30T03:18:26;10.93;;;5.23;;
27796;SDS011;15177;50.844;4.412;2024-01-30T03:20:54;8.17;;;4.67;;
27796;SDS011;15177;50.844;4.412;2024-01-30T03:23:22;11.63;;;5.23;;
27796;SDS011;15177;50.844;4.412;2024-01-30T03:25:48;12.13;;;5.07;;
27796;SDS011;15177;50.844;4.412;2024-01-30T03:28:14;9.80;;;4.93;;
27796;SDS011;15177;50.844;4.412;2024-01-30T03:30:42;7.70;;;4.60;;
27796;SDS011;15177;50.844;4.412;2024-01-30T03:33:10;11.30;;;4.80;;
27796;SDS011;15177;50.844;4.412;2024-01-30T03:35:36;9.50;;;4.37;;
27796;SDS011;15177;50.844;4.412;2024-01-30T03:38:04;9.00;;;4.90;;
27796;SDS011;15177;50.844;4.412;2024-01-30T03:40:29;8.80;;;5.03;;
27796;SDS011;15177;50.844;4.412;2024-01-30T03:42:55;7.10;;;4.17;;
27796;SDS011;15177;50.844;4.412;2024-01-30T03:45:23;11.13;;;5.17;;
27796;SDS011;15177;50.844;4.412;2024-01-30T03:47:51;7.90;;;4.67;;
27796;SDS011;15177;50.844;4.412;2024-01-30T03:50:17;10.90;;;4.70;;
27796;SDS011;15177;50.844;4.412;2024-01-30T03:52:42;12.00;;;5.00;;
27796;SDS011;15177;50.844;4.412;2024-01-30T03:55:08;9.53;;;4.63;;
27796;SDS011;15177;50.844;4.412;2024-01-30T03:57:35;7.90;;;4.60;;
27796;SDS011;15177;50.844;4.412;2024-01-30T04:00:04;12.03;;;4.87;;
27796;SDS011;15177;50.844;4.412;2024-01-30T04:02:30;9.77;;;5.07;;
27796;SDS011;15177;50.844;4.412;2024-01-30T04:04:58;9.70;;;5.27;;
27796;SDS011;15177;50.844;4.412;2024-01-30T04:07:23;10.53;;;4.97;;
27796;SDS011;15177;50.844;4.412;2024-01-30T04:09:49;8.87;;;4.90;;
27796;SDS011;15177;50.844;4.412;2024-01-30T04:12:15;11.97;;;5.50;;
27796;SDS011;15177;50.844;4.412;2024-01-30T04:14:40;13.67;;;5.67;;
27796;SDS011;15177;50.844;4.412;2024-01-30T04:17:08;7.90;;;4.73;;
27796;SDS011;15177;50.844;4.412;2024-01-30T04:19:37;8.10;;;4.30;;
27796;SDS011;15177;50.844;4.412;2024-01-30T04:22:05;12.97;;;5.10;;
27796;SDS011;15177;50.844;4.412;2024-01-30T04:24:31;8.43;;;4.93;;
27796;SDS011;15177;50.844;4.412;2024-01-30T04:26:59;10.97;;;5.30;;
27796;SDS011;15177;50.844;4.412;2024-01-30T04:29:25;6.63;;;5.03;;
27796;SDS011;15177;50.844;4.412;2024-01-30T04:31:50;11.87;;;5.30;;
27796;SDS011;15177;50.844;4.412;2024-01-30T04:34:16;9.67;;;5.50;;
27796;SDS011;15177;50.844;4.412;2024-01-30T04:36:46;9.87;;;5.17;;
27796;SDS011;15177;50.844;4.412;2024-01-30T04:39:12;8.13;;;4.97;;
27796;SDS011;15177;50.844;4.412;2024-01-30T04:41:39;11.67;;;5.23;;
27796;SDS011;15177;50.844;4.412;2024-01-30T04:44:05;8.23;;;5.07;;
27796;SDS011;15177;50.844;4.412;2024-01-30T04:46:31;8.70;;;4.93;;
27796;SDS011;15177;50.844;4.412;2024-01-30T04:48:59;9.53;;;5.10;;
27796;SDS011;15177;50.844;4.412;2024-01-30T04:51:30;15.30;;;5.40;;
27796;SDS011;15177;50.844;4.412;2024-01-30T04:53:58;8.43;;;5.07;;
27796;SDS011;15177;50.844;4.412;2024-01-30T04:56:24;8.67;;;5.00;;
27796;SDS011;15177;50.844;4.412;2024-01-30T04:58:52;11.33;;;5.63;;
27796;SDS011;15177;50.844;4.412;2024-01-30T05:01:18;14.17;;;5.63;;
27796;SDS011;15177;50.844;4.412;2024-01-30T05:03:43;11.15;;;5.13;;
27796;SDS011;15177;50.844;4.412;2024-01-30T05:06:09;10.67;;;5.67;;
27796;SDS011;15177;50.844;4.412;2024-01-30T05:08:35;12.63;;;5.63;;
27796;SDS011;15177;50.844;4.412;2024-01-30T05:11:06;7.47;;;5.40;;
27796;SDS011;15177;50.844;4.412;2024-01-30T05:13:32;11.90;;;5.63;;
27796;SDS011;15177;50.844;4.412;2024-01-30T05:15:58;12.30;;;5.50;;
27796;SDS011;15177;50.844;4.412;2024-01-30T05:18:24;13.23;;;5.80;;
27796;SDS011;15177;50.844;4.412;2024-01-30T05:20:51;10.83;;;6.60;;
27796;SDS011;15177;50.844;4.412;2024-01-30T05:23:17;14.60;;;6.47;;
27796;SDS011;15177;50.844;4.412;2024-01-30T05:25:45;9.87;;;5.60;;
27796;SDS011;15177;50.844;4.412;2024-01-30T05:28:13;10.90;;;5.53;;
27796;SDS011;15177;50.844;4.412;2024-01-30T05:30:39;9.00;;;5.37;;
27796;SDS011;15177;50.844;4.412;2024-01-30T05:33:04;9.13;;;5.57;;
27796;SDS011;15177;50.844;4.412;2024-01-30T05:35:30;11.97;;;5.97;;
27796;SDS011;15177;50.844;4.412;2024-01-30T05:37:56;10.77;;;6.00;;
27796;SDS011;15177;50.844;4.412;2024-01-30T05:40:21;10.33;;;5.57;;
27796;SDS011;15177;50.844;4.412;2024-01-30T05:42:49;9.07;;;5.70;;
27796;SDS011;15177;50.844;4.412;2024-01-30T05:45:15;8.70;;;5.70;;
27796;SDS011;15177;50.844;4.412;2024-01-30T05:47:43;7.43;;;5.30;;
27796;SDS011;15177;50.844;4.412;2024-01-30T05:50:09;13.07;;;4.77;;
27796;SDS011;15177;50.844;4.412;2024-01-30T05:52:35;8.80;;;5.53;;
27796;SDS011;15177;50.844;4.412;2024-01-30T05:55:00;10.00;;;5.83;;
27796;SDS011;15177;50.844;4.412;2024-01-30T05:57:26;12.97;;;5.63;;
27796;SDS011;15177;50.844;4.412;2024-01-30T05:59:52;12.00;;;6.40;;
27796;SDS011;15177;50.844;4.412;2024-01-30T06:02:18;10.77;;;5.67;;
27796;SDS011;15177;50.844;4.412;2024-01-30T06:04:43;12.00;;;6.03;;
27796;SDS011;15177;50.844;4.412;2024-01-30T06:07:09;12.60;;;5.80;;
27796;SDS011;15177;50.844;4.412;2024-01-30T06:09:35;8.53;;;5.50;;
27796;SDS011;15177;50.844;4.412;2024-01-30T06:12:06;10.37;;;5.40;;
27796;SDS011;15177;50.844;4.412;2024-01-30T06:14:32;10.53;;;5.27;;
27796;SDS011;15177;50.844;4.412;2024-01-30T06:16:58;12.53;;;5.87;;
27796;SDS011;15177;50.844;4.412;2024-01-30T06:19:24;12.83;;;6.17;;
27796;SDS011;15177;50.844;4.412;2024-01-30T06:21:50;12.20;;;5.80;;
27796;SDS011;15177;50.844;4.412;2024-01-30T06:24:15;9.50;;;6.30;;
27796;SDS011;15177;50.844;4.412;2024-01-30T06:26:42;13.33;;;6.30;;
27796;SDS011;15177;50.844;4.412;2024-01-30T06:29:07;15.03;;;7.77;;
27796;SDS011;15177;50.844;4.412;2024-01-30T06:31:39;12.63;;;5.93;;
27796;SDS011;15177;50.844;4.412;2024-01-30T06:34:06;13.43;;;6.63;;
27796;SDS011;15177;50.844;4.412;2024-01-30T06:36:32;10.70;;;6.43;;
27796;SDS011;15177;50.844;4.412;2024-01-30T06:38:58;9.97;;;6.07;;
27796;SDS011;15177;50.844;4.412;2024-01-30T06:41:23;15.00;;;6.83;;
27796;SDS011;15177;50.844;4.412;2024-01-30T06:43:51;10.83;;;6.57;;
27796;SDS011;15177;50.844;4.412;2024-01-30T06:46:19;11.07;;;5.83;;
27796;SDS011;15177;50.844;4.412;2024-01-30T06:48:48;15.33;;;6.57;;
27796;SDS011;15177;50.844;4.412;2024-01-30T06:51:15;11.57;;;6.43;;
27796;SDS011;15177;50.844;4.412;2024-01-30T06:53:41;15.87;;;6.43;;
27796;SDS011;15177;50.844;4.412;2024-01-30T06:56:07;13.23;;;6.90;;
27796;SDS011;15177;50.844;4.412;2024-01-30T06:58:33;14.47;;;5.90;;
27796;SDS011;15177;50.844;4.412;2024-01-30T07:00:59;10.30;;;6.13;;
27796;SDS011;15177;50.844;4.412;2024-01-30T07:03:24;11.10;;;6.60;;
27796;SDS011;15177;50.844;4.412;2024-01-30T07:05:50;13.73;;;7.10;;
27796;SDS011;15177;50.844;4.412;2024-01-30T07:08:16;13.00;;;5.80;;
27796;SDS011;15177;50.844;4.412;2024-01-30T07:10:44;14.73;;;6.80;;
27796;SDS011;15177;50.844;4.412;2024-01-30T07:13:13;10.97;;;7.13;;
27796;SDS011;15177;50.844;4.412;2024-01-30T07:15:41;10.20;;;6.37;;
27796;SDS011;15177;50.844;4.412;2024-01-30T07:18:07;13.93;;;6.60;;
27796;SDS011;15177;50.844;4.412;2024-01-30T07:20:34;15.03;;;6.70;;
27796;SDS011;15177;50.844;4.412;2024-01-30T07:23:00;14.60;;;6.63;;
27796;SDS011;15177;50.844;4.412;2024-01-30T07:25:27;12.40;;;5.93;;
27796;SDS011;15177;50.844;4.412;2024-01-30T07:27:57;12.43;;;6.57;;
27796;SDS011;15177;50.844;4.412;2024-01-30T07:30:22;18.90;;;6.70;;
27796;SDS011;15177;50.844;4.412;2024-01-30T07:32:49;10.87;;;6.27;;
27796;SDS011;15177;50.844;4.412;2024-01-30T07:35:17;15.47;;;6.87;;
27796;SDS011;15177;50.844;4.412;2024-01-30T07:37:51;11.43;;;6.10;;
27796;SDS011;15177;50.844;4.412;2024-01-30T07:40:29;18.60;;;6.77;;
27796;SDS011;15177;50.844;4.412;2024-01-30T07:43:13;14.03;;;6.50;;
27796;SDS011;15177;50.844;4.412;2024-01-30T07:45:41;14.93;;;6.97;;
27796;SDS011;15177;50.844;4.412;2024-01-30T07:48:09;15.53;;;6.53;;
27796;SDS011;15177;50.844;4.412;2024-01-30T07:50:35;15.93;;;6.90;;
27796;SDS011;15177;50.844;4.412;2024-01-30T07:53:00;14.50;;;6.80;;
27796;SDS011;15177;50.844;4.412;2024-01-30T07:55:29;20.83;;;6.97;;
27796;SDS011;15177;50.844;4.412;2024-01-30T07:57:57;15.33;;;7.43;;
27796;SDS011;15177;50.844;4.412;2024-01-30T08:00:33;21.83;;;7.23;;
27796;SDS011;15177;50.844;4.412;2024-01-30T08:02:58;17.90;;;7.70;;
27796;SDS011;15177;50.844;4.412;2024-01-30T08:05:24;14.73;;;7.10;;
27796;SDS011;15177;50.844;4.412;2024-01-30T08:07:50;21.43;;;7.87;;
27796;SDS011;15177;50.844;4.412;2024-01-30T08:10:18;21.47;;;6.87;;
27796;SDS011;15177;50.844;4.412;2024-01-30T08:12:50;18.00;;;8.57;;
27796;SDS011;15177;50.844;4.412;2024-01-30T08:15:18;20.40;;;8.23;;
27796;SDS011;15177;50.844;4.412;2024-01-30T08:17:43;17.33;;;7.47;;
27796;SDS011;15177;50.844;4.412;2024-01-30T08:20:11;25.50;;;8.10;;
27796;SDS011;15177;50.844;4.412;2024-01-30T08:22:38;19.60;;;7.60;;
27796;SDS011;15177;50.844;4.412;2024-01-30T08:25:05;20.53;;;7.63;;
27796;SDS011;15177;50.844;4.412;2024-01-30T08:27:32;13.60;;;7.37;;
27796;SDS011;15177;50.844;4.412;2024-01-30T08:30:04;23.60;;;9.30;;
27796;SDS011;15177;50.844;4.412;2024-01-30T08:32:34;19.43;;;8.17;;
27796;SDS011;15177;50.844;4.412;2024-01-30T08:35:00;19.47;;;8.03;;
27796;SDS011;15177;50.844;4.412;2024-01-30T08:37:31;20.13;;;8.10;;
27796;SDS011;15177;50.844;4.412;2024-01-30T08:40:05;18.93;;;7.40;;
27796;SDS011;15177;50.844;4.412;2024-01-30T08:42:35;19.40;;;8.40;;
27796;SDS011;15177;50.844;4.412;2024-01-30T08:45:00;14.93;;;8.37;;
27796;SDS011;15177;50.844;4.412;2024-01-30T08:47:26;17.20;;;7.97;;
27796;SDS011;15177;50.844;4.412;2024-01-30T08:49:55;13.97;;;7.83;;
27796;SDS011;15177;50.844;4.412;2024-01-30T08:52:20;20.37;;;8.00;;
27796;SDS011;15177;50.844;4.412;2024-01-30T08:54:46;17.90;;;7.40;;
27796;SDS011;15177;50.844;4.412;2024-01-30T08:57:11;15.90;;;7.90;;
27796;SDS011;15177;50.844;4.412;2024-01-30T08:59:39;20.57;;;6.97;;
27796;SDS011;15177;50.844;4.412;2024-01-30T09:02:05;17.10;;;7.53;;
27796;SDS011;15177;50.844;4.412;2024-01-30T09:04:31;13.70;;;8.00;;
27796;SDS011;15177;50.844;4.412;2024-01-30T09:06:57;17.07;;;7.80;;
27796;SDS011;15177;50.844;4.412;2024-01-30T09:09:31;18.53;;;7.80;;
27796;SDS011;15177;50.844;4.412;2024-01-30T09:11:56;17.97;;;8.30;;
27796;SDS011;15177;50.844;4.412;2024-01-30T09:14:27;20.43;;;8.07;;
27796;SDS011;15177;50.844;4.412;2024-01-30T09:16:52;16.33;;;7.87;;
27796;SDS011;15177;50.844;4.412;2024-01-30T09:19:20;18.50;;;7.93;;
27796;SDS011;15177;50.844;4.412;2024-01-30T09:21:46;18.53;;;7.33;;
27796;SDS011;15177;50.844;4.412;2024-01-30T09:24:13;21.03;;;7.27;;
27796;SDS011;15177;50.844;4.412;2024-01-30T09:26:42;19.90;;;8.40;;
27796;SDS011;15177;50.844;4.412;2024-01-30T09:29:41;19.87;;;7.33;;
27796;SDS011;15177;50.844;4.412;2024-01-30T09:32:44;19.83;;;8.23;;
27796;SDS011;15177;50.844;4.412;2024-01-30T09:35:37;18.40;;;8.33;;
27796;SDS011;15177;50.844;4.412;2024-01-30T09:38:24;20.80;;;8.73;;
27796;SDS011;15177;50.844;4.412;2024-01-30T09:40:58;23.50;;;8.70;;
27796;SDS011;15177;50.844;4.412;2024-01-30T09:43:32;23.03;;;8.70;;
27796;SDS011;15177;50.844;4.412;2024-01-30T09:46:02;23.17;;;8.67;;
27796;SDS011;15177;50.844;4.412;2024-01-30T09:48:30;21.08;;;9.15;;
27796;SDS011;15177;50.844;4.412;2024-01-30T09:51:01;20.87;;;9.27;;
27796;SDS011;15177;50.844;4.412;2024-01-30T09:53:27;22.43;;;9.03;;
27796;SDS011;15177;50.844;4.412;2024-01-30T09:55:55;26.87;;;9.27;;
27796;SDS011;15177;50.844;4.412;2024-01-30T09:58:22;22.83;;;9.57;;
27796;SDS011;15177;50.844;4.412;2024-01-30T10:00:47;22.37;;;10.33;;
27796;SDS011;15177;50.844;4.412;2024-01-30T10:03:13;26.20;;;9.73;;
27796;SDS011;15177;50.844;4.412;2024-01-30T10:05:40;21.17;;;10.10;;
27796;SDS011;15177;50.844;4.412;2024-01-30T10:08:08;28.37;;;10.37;;
27796;SDS011;15177;50.844;4.412;2024-01-30T10:10:42;21.63;;;10.60;;
27796;SDS011;15177;50.844;4.412;2024-01-30T10:13:14;18.23;;;9.57;;
27796;SDS011;15177;50.844;4.412;2024-01-30T10:15:41;26.70;;;10.20;;
27796;SDS011;15177;50.844;4.412;2024-01-30T10:18:16;20.00;;;11.53;;
27796;SDS011;15177;50.844;4.412;2024-01-30T10:20:51;19.93;;;9.73;;
27796;SDS011;15177;50.844;4.412;2024-01-30T10:23:19;21.87;;;10.53;;
27796;SDS011;15177;50.844;4.412;2024-01-30T10:25:45;20.00;;;10.37;;
27796;SDS011;15177;50.844;4.412;2024-01-30T10:28:30;22.07;;;10.60;;
27796;SDS011;15177;50.844;4.412;2024-01-30T10:31:00;22.37;;;11.23;;
27796;SDS011;15177;50.844;4.412;2024-01-30T10:33:43;24.83;;;10.23;;
27796;SDS011;15177;50.844;4.412;2024-01-30T10:36:18;22.63;;;10.33;;
27796;SDS011;15177;50.844;4.412;2024-01-30T10:38:57;19.63;;;11.17;;
27796;SDS011;15177;50.844;4.412;2024-01-30T10:41:31;22.17;;;10.23;;
27796;SDS011;15177;50.844;4.412;2024-01-30T10:44:07;21.10;;;9.63;;
27796;SDS011;15177;50.844;4.412;2024-01-30T10:46:35;23.97;;;9.23;;
27796;SDS011;15177;50.844;4.412;2024-01-30T10:49:05;21.70;;;9.43;;
27796;SDS011;15177;50.844;4.412;2024-01-30T10:51:32;28.10;;;8.67;;
27796;SDS011;15177;50.844;4.412;2024-01-30T10:54:00;18.87;;;8.97;;
27796;SDS011;15177;50.844;4.412;2024-01-30T10:56:30;15.80;;;8.50;;
27796;SDS011;15177;50.844;4.412;2024-01-30T10:59:07;22.57;;;8.53;;
27796;SDS011;15177;50.844;4.412;2024-01-30T11:01:33;18.13;;;8.23;;
27796;SDS011;15177;50.844;4.412;2024-01-30T11:04:00;18.10;;;8.13;;
27796;SDS011;15177;50.844;4.412;2024-01-30T11:06:30;21.97;;;7.33;;
27796;SDS011;15177;50.844;4.412;2024-01-30T11:11:29;17.97;;;6.97;;
27796;SDS011;15177;50.844;4.412;2024-01-30T11:13:55;21.70;;;7.20;;
27796;SDS011;15177;50.844;4.412;2024-01-30T11:16:20;18.23;;;7.23;;
27796;SDS011;15177;50.844;4.412;2024-01-30T11:18:50;18.90;;;7.37;;
27796;SDS011;15177;50.844;4.412;2024-01-30T11:21:16;22.33;;;6.93;;
27796;SDS011;15177;50.844;4.412;2024-01-30T11:23:42;14.10;;;5.67;;
27796;SDS011;15177;50.844;4.412;2024-01-30T11:26:10;16.37;;;6.37;;
27796;SDS011;15177;50.844;4.412;2024-01-30T11:28:37;13.70;;;4.63;;
27796;SDS011;15177;50.844;4.412;2024-01-30T11:31:05;13.33;;;3.80;;
27796;SDS011;15177;50.844;4.412;2024-01-30T11:33:37;9.70;;;3.13;;
27796;SDS011;15177;50.844;4.412;2024-01-30T11:36:03;7.53;;;3.37;;
27796;SDS011;15177;50.844;4.412;2024-01-30T11:38:31;5.87;;;2.00;;
27796;SDS011;15177;50.844;4.412;2024-01-30T11:40:59;6.10;;;2.40;;
27796;SDS011;15177;50.844;4.412;2024-01-30T11:43:27;4.17;;;2.30;;
27796;SDS011;15177;50.844;4.412;2024-01-30T11:45:55;10.43;;;2.07;;
27796;SDS011;15177;50.844;4.412;2024-01-30T11:48:25;5.97;;;1.97;;
27796;SDS011;15177;50.844;4.412;2024-01-30T11:50:51;11.73;;;2.00;;
27796;SDS011;15177;50.844;4.412;2024-01-30T11:53:18;6.90;;;2.00;;
27796;SDS011;15177;50.844;4.412;2024-01-30T11:55:51;6.40;;;2.10;;
27796;SDS011;15177;50.844;4.412;2024-01-30T11:58:17;4.43;;;1.93;;
27796;SDS011;15177;50.844;4.412;2024-01-30T12:00:55;9.10;;;1.63;;
27796;SDS011;15177;50.844;4.412;2024-01-30T12:03:27;5.47;;;1.83;;
27796;SDS011;15177;50.844;4.412;2024-01-30T12:05:56;5.47;;;1.43;;
27796;SDS011;15177;50.844;4.412;2024-01-30T12:08:23;4.40;;;1.50;;
27796;SDS011;15177;50.844;4.412;2024-01-30T12:10:56;5.40;;;1.47;;
27796;SDS011;15177;50.844;4.412;2024-01-30T12:13:32;3.03;;;1.07;;
27796;SDS011;15177;50.844;4.412;2024-01-30T12:15:59;5.03;;;1.23;;
27796;SDS011;15177;50.844;4.412;2024-01-30T12:18:26;3.90;;;1.47;;
27796;SDS011;15177;50.844;4.412;2024-01-30T12:21:01;3.57;;;1.00;;
27796;SDS011;15177;50.844;4.412;2024-01-30T12:23:29;3.67;;;1.17;;
27796;SDS011;15177;50.844;4.412;2024-01-30T12:26:00;4.70;;;1.23;;
27796;SDS011;15177;50.844;4.412;2024-01-30T12:28:29;2.87;;;1.10;;
27796;SDS011;15177;50.844;4.412;2024-01-30T12:30:57;4.97;;;1.00;;
27796;SDS011;15177;50.844;4.412;2024-01-30T12:33:29;3.87;;;1.23;;
27796;SDS011;15177;50.844;4.412;2024-01-30T12:35:56;1.97;;;1.10;;
27796;SDS011;15177;50.844;4.412;2024-01-30T12:38:28;4.33;;;1.27;;
27796;SDS011;15177;50.844;4.412;2024-01-30T12:40:56;4.97;;;1.10;;
27796;SDS011;15177;50.844;4.412;2024-01-30T12:43:26;1.93;;;0.70;;
27796;SDS011;15177;50.844;4.412;2024-01-30T12:45:54;5.07;;;1.23;;
27796;SDS011;15177;50.844;4.412;2024-01-30T12:48:20;8.63;;;1.47;;
27796;SDS011;15177;50.844;4.412;2024-01-30T12:50:46;6.40;;;1.20;;
27796;SDS011;15177;50.844;4.412;2024-01-30T12:53:13;10.80;;;1.50;;
27796;SDS011;15177;50.844;4.412;2024-01-30T12:55:39;3.67;;;0.93;;
27796;SDS011;15177;50.844;4.412;2024-01-30T12:58:05;9.23;;;1.03;;
27796;SDS011;15177;50.844;4.412;2024-01-30T13:00:30;6.33;;;1.17;;
27796;SDS011;15177;50.844;4.412;2024-01-30T13:03:05;6.87;;;1.77;;
27796;SDS011;15177;50.844;4.412;2024-01-30T13:05:36;4.23;;;1.40;;
27796;SDS011;15177;50.844;4.412;2024-01-30T13:08:02;3.77;;;1.07;;
27796;SDS011;15177;50.844;4.412;2024-01-30T13:10:27;4.43;;;1.17;;
27796;SDS011;15177;50.844;4.412;2024-01-30T13:12:53;4.70;;;1.40;;
27796;SDS011;15177;50.844;4.412;2024-01-30T13:15:19;11.73;;;1.30;;
27796;SDS011;15177;50.844;4.412;2024-01-30T13:17:50;6.93;;;1.23;;
27796;SDS011;15177;50.844;4.412;2024-01-30T13:20:20;6.43;;;1.40;;
27796;SDS011;15177;50.844;4.412;2024-01-30T13:22:47;4.07;;;1.20;;
27796;SDS011;15177;50.844;4.412;2024-01-30T13:25:15;7.20;;;1.40;;
27796;SDS011;15177;50.844;4.412;2024-01-30T13:27:41;6.33;;;1.47;;
27796;SDS011;15177;50.844;4.412;2024-01-30T13:30:08;4.30;;;1.20;;
27796;SDS011;15177;50.844;4.412;2024-01-30T13:32:34;6.30;;;1.40;;
27796;SDS011;15177;50.844;4.412;2024-01-30T13:35:00;5.30;;;1.77;;
27796;SDS011;15177;50.844;4.412;2024-01-30T13:37:26;17.47;;;1.70;;
27796;SDS011;15177;50.844;4.412;2024-01-30T13:39:52;11.97;;;1.63;;
27796;SDS011;15177;50.844;4.412;2024-01-30T13:42:21;10.63;;;1.50;;
27796;SDS011;15177;50.844;4.412;2024-01-30T13:44:47;6.47;;;1.93;;
27796;SDS011;15177;50.844;4.412;2024-01-30T13:47:12;11.23;;;2.17;;
27796;SDS011;15177;50.844;4.412;2024-01-30T13:49:38;12.17;;;3.33;;
27796;SDS011;15177;50.844;4.412;2024-01-30T13:52:04;6.73;;;1.30;;
27796;SDS011;15177;50.844;4.412;2024-01-30T13:54:33;7.67;;;1.50;;
27796;SDS011;15177;50.844;4.412;2024-01-30T13:57:08;5.27;;;1.13;;
27796;SDS011;15177;50.844;4.412;2024-01-30T13:59:37;6.47;;;1.43;;
27796;SDS011;15177;50.844;4.412;2024-01-30T14:02:06;7.20;;;1.53;;
27796;SDS011;15177;50.844;4.412;2024-01-30T14:04:33;11.40;;;2.00;;
27796;SDS011;15177;50.844;4.412;2024-01-30T14:07:02;5.20;;;1.50;;
27796;SDS011;15177;50.844;4.412;2024-01-30T14:09:33;7.23;;;1.83;;
27796;SDS011;15177;50.844;4.412;2024-01-30T14:12:00;5.93;;;1.60;;
27796;SDS011;15177;50.844;4.412;2024-01-30T14:14:25;5.70;;;1.40;;
27796;SDS011;15177;50.844;4.412;2024-01-30T14:16:53;7.53;;;1.57;;
27796;SDS011;15177;50.844;4.412;2024-01-30T14:19:19;3.73;;;1.07;;
27796;SDS011;15177;50.844;4.412;2024-01-30T14:21:45;10.27;;;1.17;;
27796;SDS011;15177;50.844;4.412;2024-01-30T14:24:13;6.30;;;1.70;;
27796;SDS011;15177;50.844;4.412;2024-01-30T14:26:38;5.53;;;1.27;;
27796;SDS011;15177;50.844;4.412;2024-01-30T14:29:04;6.53;;;1.30;;
27796;SDS011;15177;50.844;4.412;2024-01-30T14:31:29;8.90;;;1.40;;
27796;SDS011;15177;50.844;4.412;2024-01-30T14:33:55;6.13;;;1.60;;
27796;SDS011;15177;50.844;4.412;2024-01-30T14:36:21;6.27;;;1.00;;
27796;SDS011;15177;50.844;4.412;2024-01-30T14:38:47;5.90;;;1.10;;
27796;SDS011;15177;50.844;4.412;2024-01-30T14:41:15;4.77;;;1.00;;
27796;SDS011;15177;50.844;4.412;2024-01-30T14:43:43;8.43;;;1.57;;
27796;SDS011;15177;50.844;4.412;2024-01-30T14:46:11;9.37;;;1.30;;